Aktualne dane pomiarowe

Uwaga, wersja testowa! Automatyczne pobieranie danych za pomocą narzędzi lub skryptów to umożliwiających jest zabronione.

Dane meteo z obszaru Polski uzyskane na podstawie depesz SYNOP pobieranych co godzinę z NWS. Najedź myszką na symbol przedstawiony w tabeli, aby uzyskać informacje co do jego znaczenia. Prosimy pamiętać, że to testowa wersja strony, która jeszcze nie jest ukończona. Stworzono również jest krótki FAQ dotyczący korzystania z tej podstrony Anomalie temperatury w chwili obecnej odniesione są do okresu referencyjnego 1951-2016. Okres ten będzie później zmieniony na 1981-2010. Kliknij ikonę aby pobrać plik CSV. Kliknij ikonę aby wygenerować mapę synoptyczną dla danego terminu.

Wybierz Datę:    

        

Kalisz (12435)

Dane terminowe dla wybranej stacji. Kliknij datę, aby otrzymać dane z tego terminu dla wszystkich stacji.

TemperaturaZachmurzenieWiatrCiśnienieOpadyPogoda
 Data t td wb tx tn tg rh  Nt Nl Cl Cm Ch ws wd g1 g2 wx mslp ppp ch 24h 12h t ww ww w1 w2  
2019-07-12 23:00:00 15.8 14.7 15.0--- 9311.0wx-wx1wx--11010.2 993.7 0.1---wx-w1--
2019-07-12 22:00:00 16.0 14.5 14.9--- 9113.0wxwxwx1wx---1010.3 993.8 0.2---wx-w1--
2019-07-12 21:00:00 16.1 14.5 15.0--- 9017.0wxwxwxwx2wx--21010.1 993.6 0.3---wx-w1--
2019-07-12 20:00:00 16.5 14.7 15.2--- 8918.0wxwxwxwx2wx--21010.1 993.6 0.4---wx-w1--
2019-07-12 19:00:00 17.5 14.2 15.2--- 8128.0wxwxwxwx1wx--11010.0 993.6 0.5---wx---
2019-07-12 18:00:00 18.7 14.0 15.6 25.4 18.7- 7425.0wxwxwxwx5wx--51009.7 993.3 0.7- 0.012------
2019-07-12 17:00:00 19.4 13.8 15.7--- 7021.0wxwxwxwx5wx--51009.5 993.2 0.4---------
2019-07-12 16:00:00 21.0 13.4 16.2--- 6213.0wxwxwxwx6wx--61009.3 993.1 0.3---------
2019-07-12 15:00:00 23.5 8.4 14.9--- 3845.0wxwxwxwx3wx--31008.7 992.6 -0.3---------
2019-07-12 14:00:00 23.4 8.3 14.8--- 3823.0wxwxwx2wx--21008.9 992.8 -0.4---------
2019-07-12 13:00:00 24.1 7.7 14.8--- 3550.0wxwxwxwxwx2wx--21008.9 992.8 -0.7---------
2019-07-12 12:00:00 24.8 7.4 15.0--- 3330.0wxwxwxwx3wx--31008.9 992.9 -0.9- 0.06------
2019-07-12 11:00:00 24.8 7.0 14.8--- 3235.0wxwxwxwx2wx--21009.2 993.2 -0.7---------
2019-07-12 10:00:00 24.3 7.4 14.8--- 3413.0wxwxwxwx3wx--31009.6 993.5 -0.7---------
2019-07-12 09:00:00 24.1 7.3 14.7--- 3440.0wxwxwxwx1wx--11009.9 993.8 -0.5---------
2019-07-12 08:00:00 23.1 8.0 14.5--- 3835.0wxwxwxwxwx1wx--11010.0 993.9 -0.4---------
2019-07-12 07:00:00 21.4 8.3 13.9--- 4345.0wx-wxwx1wx--11010.4 994.2 -0.1---------
2019-07-12 06:00:00 19.0 10.3 13.7 21.7 13.9 10 5740.0wx-wxwx1wx--11010.7 994.3 0.1- 0.012----- 10.1
2019-07-12 05:00:00 16.4 10.0 12.5--- 6630.0wx-wxwx2wx---1010.8 994.3 -0.2---------
2019-07-12 04:00:00 14.5 9.3 11.3--- 7135.0wx-wxwx2wx--21010.9 994.3 -0.4---------
2019-07-12 03:00:00 14.0 9.0 10.9--- 7230.0wx-wxwx2wx--21010.9 994.2 -0.7---------
2019-07-12 02:00:00 15.6 8.8 11.5--- 6450.0wxwxwxwx2wx--21011.1 994.5 -0.6---------
2019-07-12 01:00:00 15.3 8.8 11.4--- 6535.0wxwxwx2wx--21011.3 994.7 -0.5---------
2019-07-12 00:00:00 15.7 8.9 11.6--- 6445.0wxwxwx2wx--21011.5 994.9 -0.2- 0.06------
2019-07-11 23:00:00 15.8 8.5 11.4--- 6245.0wx-wx3wx--31011.7 995.1 0.0---------
2019-07-11 22:00:00 16.8 8.7 12.0--- 5945.0wx-wx2wx--21011.7 995.2 0.3---------
2019-07-11 21:00:00 17.7 9.1 12.6--- 5740.0wxwxwxwx1wx--11011.6 995.1 0.3---------
2019-07-11 20:00:00 18.5 8.7 12.8--- 5345.0wxwxwxwx2wx--21011.5 995.1 0.2---------
2019-07-11 19:00:00 19.5 8.5 13.1--- 4945.0wx-wxwx0---01011.3 994.9 0.1---------
2019-07-11 18:00:00 21.7 7.9 13.9 23.1 13.7- 4150.0wxwxwxwxwx1wx--11011.0 994.8 -0.3- 0.012------
2019-07-11 17:00:00 22.3 6.5 13.6--- 3650.0wxwxwxwxwx3wx--31011.1 994.9 -0.5---------
2019-07-11 16:00:00 22.6 6.4 13.6--- 3545.0wxwxwxwx4wx--41011.0 994.8 -1.0---------
2019-07-11 15:00:00 21.6 6.7 13.3--- 3850.0wxwxwxwx3wx--31011.3 995.1 -1.1---------
2019-07-11 14:00:00 22.3 7.3 13.9--- 3840.0wxwxwxwx2wx--21011.6 995.4 -0.9---------
2019-07-11 13:00:00 22.0 7.4 13.8--- 3940.0wxwxwxwx4wx--41012.0 995.8 -0.7---------
2019-07-11 12:00:00 20.5 7.8 13.3--- 4430.0wxwxwx4wx--41012.5 996.2 -0.6- 0.06------
2019-07-11 11:00:00 19.7 7.4 12.8--- 4545.0wxwxwx3wx--31012.7 996.3 -0.5---------
2019-07-11 10:00:00 19.1 7.2 12.4--- 4635.0wxwxwx4wx--41012.9 996.5 -0.2---------
2019-07-11 09:00:00 18.1 7.8 12.2--- 5145.0wxwxwx3wx--31013.3 996.8 0.3---------
2019-07-11 08:00:00 17.2 8.1 11.9--- 5535.0wxwxwx3wx--31013.3 996.8 0.6---------
2019-07-11 07:00:00 15.4 9.7 11.9--- 6930.0wxwxwxwx2wx---1013.3 996.7 0.7---------
2019-07-11 06:00:00 13.7 10.5 11.6 17.9 11.7 11 8135.0wxwxwxwxwx3wx--31013.2 996.5 0.9 3.9 0.512wx-w1- 4.4
2019-07-11 05:00:00 13.2 12.3 12.5--- 9420.0wxwxwxwxwx3wx--31012.9 996.2 0.5---------
2019-07-11 04:00:00 12.4 11.6 11.8--- 9518.0wxwxwx3wx--31012.8 996.0 -0.1---------
2019-07-11 03:00:00 11.7 11.2 11.3--- 9714.0wxwxwxwx2wx--21012.4 995.6 -0.8---wx-w1--
2019-07-11 02:00:00 11.8 11.3 11.4--- 9714.0wxwxwxwx2wx--21012.5 995.7 -1.2---------
2019-07-11 01:00:00 12.0 11.5 11.6--- 9713.0wxwxwxwx1wx--11012.9 996.1 -0.6---wx---
2019-07-11 00:00:00 12.9 11.5 11.9--- 9124.0wxwxwx2wx--21013.2 996.4 -0.1- 0.56wx---
1.3 ms

 

Print Friendly, PDF & Email